Time;durP1;ratioP1;P1;durP2;ratioP2;P2;SDS_P1;SDS_P2;PMS_P1;PMS_P2;Temp;Humidity;BMP_temperature;BMP_pressure;BME280_temperature;BME280_humidity;BME280_pressure;Samples;Min_cycle;Max_cycle;Signal;HPM_P1;HPM_P2
2023/09/30 00:01:55;;;;;;;11.98;2.75;;;12.80;99.90;;;;;;4966030;28;20054;-81
2023/09/30 00:04:20;;;;;;;10.48;3.03;;;12.80;99.90;;;;;;4980979;28;20054;-81
2023/09/30 00:06:46;;;;;;;11.43;3.30;;;12.80;99.90;;;;;;4940244;29;20043;-81
2023/09/30 00:09:13;;;;;;;9.98;2.47;;;12.90;99.90;;;;;;4998175;28;20122;-81
2023/09/30 00:11:39;;;;;;;9.43;2.47;;;12.90;99.90;;;;;;4982107;28;20109;-81
2023/09/30 00:14:05;;;;;;;10.82;2.80;;;12.90;99.90;;;;;;4982393;28;20210;-81
2023/09/30 00:16:31;;;;;;;10.90;2.65;;;12.90;99.90;;;;;;4962600;28;20504;-81
2023/09/30 00:18:58;;;;;;;9.45;2.28;;;12.90;99.90;;;;;;4981647;28;20043;-81
2023/09/30 00:21:24;;;;;;;7.30;2.40;;;12.90;99.90;;;;;;4982583;28;20042;-81
2023/09/30 00:23:50;;;;;;;10.90;3.00;;;12.90;99.90;;;;;;4950730;29;20142;-81
2023/09/30 00:26:16;;;;;;;8.45;2.78;;;12.90;99.90;;;;;;4967674;28;20601;-81
2023/09/30 00:28:41;;;;;;;8.82;2.60;;;12.90;99.90;;;;;;4982118;28;20379;-81
2023/09/30 00:31:10;;;;;;;9.57;2.33;;;12.90;99.90;;;;;;4946562;28;20493;-80
2023/09/30 00:33:37;;;;;;;9.02;2.42;;;12.90;99.90;;;;;;4930719;29;20039;-81
2023/09/30 00:36:10;;;;;;;8.85;2.65;;;12.90;99.90;;;;;;4978357;28;20047;-81
2023/09/30 00:38:36;;;;;;;9.43;2.70;;;12.90;99.90;;;;;;4961581;28;20059;-81
2023/09/30 00:41:03;;;;;;;11.88;3.00;;;12.90;99.90;;;;;;4929498;29;20494;-81
2023/09/30 00:43:28;;;;;;;7.88;2.40;;;12.90;99.90;;;;;;4929739;29;20090;-81
2023/09/30 00:46:22;;;;;;;9.25;2.90;;;12.90;99.90;;;;;;4929621;29;20051;-81
2023/09/30 00:48:48;;;;;;;9.50;2.63;;;12.90;99.90;;;;;;4932181;29;20094;-81
2023/09/30 00:51:14;;;;;;;12.02;3.00;;;12.90;99.90;;;;;;4962049;28;20039;-81
2023/09/30 00:53:41;;;;;;;10.30;2.67;;;12.90;99.90;;;;;;4928579;29;20048;-81
2023/09/30 00:56:07;;;;;;;7.03;2.10;;;12.90;99.90;;;;;;4960323;28;20036;-81
2023/09/30 00:58:34;;;;;;;8.50;2.28;;;12.90;99.90;;;;;;4960946;28;20511;-81
2023/09/30 01:01:00;;;;;;;9.48;2.58;;;12.80;99.90;;;;;;4945308;29;20513;-81
2023/09/30 01:03:26;;;;;;;10.15;2.78;;;12.80;99.90;;;;;;4927841;29;20142;-80
2023/09/30 01:05:52;;;;;;;11.27;2.65;;;12.80;99.90;;;;;;4943950;28;20044;-80
2023/09/30 01:08:19;;;;;;;10.02;2.38;;;12.80;99.90;;;;;;4927000;29;20659;-81
2023/09/30 01:10:45;;;;;;;10.32;2.80;;;12.70;99.90;;;;;;4957254;28;20036;-80
2023/09/30 01:13:12;;;;;;;9.75;2.35;;;12.80;99.90;;;;;;4930103;29;20568;-81
2023/09/30 01:15:38;;;;;;;8.50;2.60;;;12.70;99.90;;;;;;4974787;28;20494;-80
2023/09/30 01:18:04;;;;;;;9.93;3.00;;;12.70;99.90;;;;;;4963257;28;20054;-81
2023/09/30 01:20:31;;;;;;;8.65;2.20;;;12.70;99.90;;;;;;4960914;28;20537;-81
2023/09/30 01:22:57;;;;;;;8.25;2.42;;;12.70;99.90;;;;;;4931143;29;20387;-81
2023/09/30 01:25:24;;;;;;;9.30;2.72;;;12.70;99.90;;;;;;4928270;29;20044;-81
2023/09/30 01:27:53;;;;;;;7.13;2.42;;;12.70;99.90;;;;;;4945911;29;20414;-81
2023/09/30 01:30:19;;;;;;;11.25;2.80;;;12.70;99.90;;;;;;4927898;29;20459;-81
2023/09/30 01:32:45;;;;;;;9.00;2.67;;;12.80;99.90;;;;;;4978653;28;20082;-80
2023/09/30 01:35:11;;;;;;;9.77;2.30;;;12.70;99.90;;;;;;4975878;28;20119;-81
2023/09/30 01:37:37;;;;;;;7.53;2.28;;;12.80;99.90;;;;;;4959885;28;20138;-81
2023/09/30 01:40:03;;;;;;;8.38;2.47;;;12.80;99.90;;;;;;4928397;29;20127;-81
2023/09/30 01:42:29;;;;;;;10.05;2.60;;;12.80;99.90;;;;;;4934631;29;20044;-81
2023/09/30 01:44:56;;;;;;;9.07;2.60;;;12.70;99.90;;;;;;4965240;28;20058;-81
2023/09/30 01:47:22;;;;;;;9.35;2.40;;;12.80;99.90;;;;;;4947954;28;20572;-81
2023/09/30 01:49:48;;;;;;;10.35;2.72;;;12.80;99.90;;;;;;4949031;28;20032;-81
2023/09/30 01:52:14;;;;;;;7.13;2.20;;;12.80;99.90;;;;;;4947455;28;20090;-81
2023/09/30 01:54:40;;;;;;;8.88;2.42;;;12.80;99.90;;;;;;4980011;28;20047;-80
2023/09/30 01:57:05;;;;;;;8.20;2.30;;;12.80;99.90;;;;;;4950166;28;20541;-81
2023/09/30 01:59:31;;;;;;;9.10;2.47;;;12.80;99.90;;;;;;4947465;29;20055;-80
2023/09/30 02:01:57;;;;;;;8.65;2.35;;;12.80;99.90;;;;;;4947745;28;20048;-81
2023/09/30 02:04:23;;;;;;;8.07;2.38;;;12.70;99.90;;;;;;4948029;29;20043;-81
2023/09/30 02:06:48;;;;;;;12.50;3.20;;;12.80;99.90;;;;;;4949070;29;20126;-80
2023/09/30 02:09:14;;;;;;;10.27;2.72;;;12.80;99.90;;;;;;4930516;29;20042;-80
2023/09/30 02:11:43;;;;;;;9.32;2.58;;;12.80;99.90;;;;;;4946627;29;20040;-81
2023/09/30 02:14:11;;;;;;;8.93;2.47;;;12.70;99.90;;;;;;4933653;29;20032;-81
2023/09/30 02:16:38;;;;;;;8.55;2.95;;;12.70;99.90;;;;;;4948118;29;20047;-81
2023/09/30 02:19:04;;;;;;;8.38;2.30;;;12.80;99.90;;;;;;4963917;28;20047;-81
2023/09/30 02:21:30;;;;;;;10.50;2.47;;;12.80;99.90;;;;;;4931712;29;20031;-81
2023/09/30 02:23:56;;;;;;;8.13;2.35;;;12.70;99.90;;;;;;4929956;29;20166;-80
2023/09/30 02:26:25;;;;;;;8.07;2.40;;;12.70;99.90;;;;;;4975781;28;20556;-81
2023/09/30 02:28:52;;;;;;;8.43;2.40;;;12.70;99.90;;;;;;4929169;29;20063;-80
2023/09/30 02:31:17;;;;;;;10.20;2.85;;;12.70;99.90;;;;;;4962328;28;20051;-81
2023/09/30 02:33:44;;;;;;;8.13;2.45;;;12.70;99.90;;;;;;4931136;29;20039;-81
2023/09/30 02:36:09;;;;;;;6.68;2.10;;;12.70;99.90;;;;;;4946788;28;20028;-81
2023/09/30 02:38:38;;;;;;;11.05;2.85;;;12.70;99.90;;;;;;4932337;29;20433;-81
2023/09/30 02:41:05;;;;;;;9.52;2.63;;;12.70;99.90;;;;;;4945931;28;20517;-81
2023/09/30 02:43:30;;;;;;;11.35;2.60;;;12.70;99.90;;;;;;4961485;28;20102;-80
2023/09/30 02:45:56;;;;;;;9.32;2.53;;;12.70;99.90;;;;;;4948125;28;20047;-81
2023/09/30 02:48:22;;;;;;;9.13;2.90;;;12.70;99.90;;;;;;4959397;28;20047;-81
2023/09/30 02:50:48;;;;;;;8.00;2.50;;;12.70;99.90;;;;;;4929103;29;20036;-81
2023/09/30 02:53:13;;;;;;;9.60;2.70;;;12.70;99.90;;;;;;4942256;28;20115;-81
2023/09/30 02:55:42;;;;;;;8.75;2.33;;;12.70;99.90;;;;;;4945798;29;20040;-81
2023/09/30 02:58:08;;;;;;;10.48;2.78;;;12.70;99.90;;;;;;4945677;29;20079;-81
2023/09/30 03:00:35;;;;;;;8.95;2.65;;;12.70;99.90;;;;;;4931020;29;20142;-81
2023/09/30 03:03:02;;;;;;;9.15;2.42;;;12.70;99.90;;;;;;4946894;29;20103;-81
2023/09/30 03:05:30;;;;;;;9.23;2.63;;;12.70;99.90;;;;;;4927233;29;20088;-81
2023/09/30 03:07:56;;;;;;;8.45;2.58;;;12.70;99.90;;;;;;4963201;28;20048;-81
2023/09/30 03:10:23;;;;;;;10.10;2.45;;;12.70;99.90;;;;;;4930549;29;20040;-81
2023/09/30 03:12:50;;;;;;;7.93;2.38;;;12.70;99.90;;;;;;4913932;29;20127;-81
2023/09/30 03:15:16;;;;;;;7.03;2.13;;;12.70;99.90;;;;;;4914404;29;20040;-81
2023/09/30 03:17:43;;;;;;;8.75;2.15;;;12.70;99.90;;;;;;4948554;29;20268;-81
2023/09/30 03:20:13;;;;;;;8.50;2.25;;;12.70;99.90;;;;;;4947266;29;20068;-81
2023/09/30 03:22:42;;;;;;;9.40;2.65;;;12.70;99.90;;;;;;4930906;29;20046;-81
2023/09/30 03:25:10;;;;;;;8.95;2.45;;;12.60;99.90;;;;;;4961669;28;20570;-81
2023/09/30 03:27:36;;;;;;;11.75;2.50;;;12.60;99.90;;;;;;4963700;28;20135;-81
2023/09/30 03:30:05;;;;;;;8.93;2.47;;;12.60;99.90;;;;;;4931170;29;20047;-81
2023/09/30 03:32:33;;;;;;;7.45;2.22;;;12.60;99.90;;;;;;4929396;29;20044;-81
2023/09/30 03:35:00;;;;;;;9.20;2.35;;;12.60;99.90;;;;;;4945108;28;20123;-81
2023/09/30 03:37:27;;;;;;;8.00;2.28;;;12.60;99.90;;;;;;4962835;28;20060;-81
2023/09/30 03:39:56;;;;;;;10.13;2.33;;;12.60;99.90;;;;;;4931395;29;20051;-81
2023/09/30 03:42:22;;;;;;;9.27;2.35;;;12.60;99.90;;;;;;4930652;29;20035;-81
2023/09/30 03:44:51;;;;;;;7.53;2.28;;;12.60;99.90;;;;;;4944001;28;20085;-80
2023/09/30 03:47:18;;;;;;;8.07;2.25;;;12.60;99.90;;;;;;4977692;28;20645;-81
2023/09/30 03:49:44;;;;;;;7.32;2.30;;;12.60;99.90;;;;;;4930717;29;20066;-80
2023/09/30 03:52:10;;;;;;;8.43;2.58;;;12.60;99.90;;;;;;4979886;28;20557;-81
2023/09/30 03:54:37;;;;;;;7.15;2.22;;;12.60;99.90;;;;;;4962088;28;20398;-80
2023/09/30 03:57:03;;;;;;;9.55;2.45;;;12.60;99.90;;;;;;4929150;29;20044;-81
2023/09/30 03:59:30;;;;;;;8.13;2.47;;;12.60;99.90;;;;;;4927291;29;20085;-81
2023/09/30 04:01:57;;;;;;;11.07;2.90;;;12.60;99.90;;;;;;4976982;28;20568;-81
2023/09/30 04:04:24;;;;;;;7.57;2.00;;;12.60;99.90;;;;;;4942881;28;20051;-81
2023/09/30 04:06:51;;;;;;;8.02;2.22;;;12.60;99.90;;;;;;4944881;28;20070;-81
2023/09/30 04:09:17;;;;;;;8.45;2.40;;;12.60;99.90;;;;;;4945456;29;20074;-81
2023/09/30 04:11:43;;;;;;;8.43;2.30;;;12.60;99.90;;;;;;4961617;28;20107;-81
2023/09/30 04:14:09;;;;;;;9.25;2.50;;;12.60;99.90;;;;;;4984314;28;20438;-81
2023/09/30 04:16:37;;;;;;;8.65;2.63;;;12.60;99.90;;;;;;4918184;29;20071;-80
2023/09/30 04:19:03;;;;;;;8.32;2.30;;;12.70;99.90;;;;;;4944402;28;20075;-80
2023/09/30 04:21:33;;;;;;;10.50;2.45;;;12.70;99.90;;;;;;4931760;29;20039;-81
2023/09/30 04:23:59;;;;;;;7.55;2.30;;;12.60;99.90;;;;;;4963158;28;20091;-81
2023/09/30 04:26:25;;;;;;;8.27;2.60;;;12.60;99.90;;;;;;4946887;29;20044;-81
2023/09/30 04:28:51;;;;;;;8.95;2.42;;;12.60;99.90;;;;;;4927565;29;20058;-81
2023/09/30 04:31:18;;;;;;;9.18;2.72;;;12.60;99.90;;;;;;4946801;29;20120;-81
2023/09/30 04:33:44;;;;;;;7.70;2.45;;;12.60;99.90;;;;;;4962655;28;20047;-81
2023/09/30 04:36:10;;;;;;;6.60;2.17;;;12.60;99.90;;;;;;4961904;28;20091;-80
2023/09/30 04:38:39;;;;;;;8.10;2.55;;;12.60;99.90;;;;;;4930047;29;20056;-81
2023/09/30 04:41:07;;;;;;;8.23;2.53;;;12.60;99.90;;;;;;4957561;28;20048;-81
2023/09/30 04:43:33;;;;;;;9.02;2.30;;;12.60;99.90;;;;;;4961527;28;20370;-81
2023/09/30 04:45:59;;;;;;;10.00;3.05;;;12.60;99.90;;;;;;4910303;29;20045;-81
2023/09/30 04:48:25;;;;;;;8.70;2.70;;;12.60;99.90;;;;;;4971487;28;20051;-81
2023/09/30 04:50:51;;;;;;;12.25;3.05;;;12.60;99.90;;;;;;4944261;29;20036;-81
2023/09/30 04:53:18;;;;;;;9.05;2.90;;;12.60;99.90;;;;;;4945816;28;20047;-81
2023/09/30 04:55:44;;;;;;;9.52;3.15;;;12.60;99.90;;;;;;4926141;29;20127;-81
2023/09/30 04:58:11;;;;;;;11.30;3.00;;;12.60;99.90;;;;;;4930496;29;20071;-81
2023/09/30 05:00:37;;;;;;;9.88;3.10;;;12.60;99.90;;;;;;4961141;28;20048;-81
2023/09/30 05:03:04;;;;;;;10.60;2.97;;;12.60;99.90;;;;;;4961879;28;20067;-81
2023/09/30 05:05:30;;;;;;;9.75;3.05;;;12.60;99.90;;;;;;4930268;29;20052;-81
2023/09/30 05:07:57;;;;;;;11.05;3.25;;;12.50;99.90;;;;;;4929365;29;20067;-81
2023/09/30 05:10:24;;;;;;;9.52;3.22;;;12.50;99.90;;;;;;4929565;29;20054;-81
2023/09/30 05:12:53;;;;;;;14.20;3.85;;;12.50;99.90;;;;;;4944226;28;20036;-81
2023/09/30 05:15:20;;;;;;;9.88;3.15;;;12.50;99.90;;;;;;4929531;29;20048;-81
2023/09/30 05:17:47;;;;;;;10.10;3.55;;;12.50;99.90;;;;;;4917252;29;20082;-81
2023/09/30 05:20:13;;;;;;;9.02;2.90;;;12.50;99.90;;;;;;4932707;29;20326;-80
2023/09/30 05:22:45;;;;;;;8.77;2.95;;;12.50;99.90;;;;;;4948846;28;20062;-81
2023/09/30 05:25:17;;;;;;;10.00;3.25;;;12.50;99.90;;;;;;4932278;29;20047;-80
2023/09/30 05:27:44;;;;;;;10.65;3.53;;;12.50;99.90;;;;;;4963933;28;20039;-81
2023/09/30 05:30:10;;;;;;;11.27;3.15;;;12.50;99.90;;;;;;4947889;29;20035;-81
2023/09/30 05:32:38;;;;;;;9.60;3.00;;;12.50;99.90;;;;;;4962210;28;20044;-81
2023/09/30 05:35:05;;;;;;;8.88;3.10;;;12.50;99.90;;;;;;4977615;28;20044;-81
2023/09/30 05:37:31;;;;;;;9.25;3.10;;;12.50;99.90;;;;;;4977999;28;20153;-81
2023/09/30 05:39:58;;;;;;;8.90;3.22;;;;;;;;;;4962119;28;20169;-81
2023/09/30 05:42:23;;;;;;;13.70;3.78;;;12.50;99.90;;;;;;4951742;28;20191;-81
2023/09/30 05:44:49;;;;;;;9.23;3.20;;;12.50;99.90;;;;;;4946810;28;20684;-81
2023/09/30 05:47:17;;;;;;;9.02;3.00;;;12.50;99.90;;;;;;4941119;28;20102;-81
2023/09/30 05:49:43;;;;;;;9.27;3.20;;;12.50;99.90;;;;;;4959153;28;20039;-81
2023/09/30 05:52:09;;;;;;;10.50;3.53;;;12.50;99.90;;;;;;4966414;28;20055;-81
2023/09/30 05:54:34;;;;;;;9.00;3.30;;;12.50;99.90;;;;;;4931974;29;20066;-80
2023/09/30 05:57:00;;;;;;;10.32;3.60;;;12.50;99.90;;;;;;4960014;28;20131;-81
2023/09/30 05:59:28;;;;;;;8.90;3.20;;;12.50;99.90;;;;;;4944875;28;20043;-81
2023/09/30 06:01:53;;;;;;;10.63;3.70;;;12.40;99.90;;;;;;4977601;28;20039;-81
2023/09/30 06:04:20;;;;;;;12.73;4.10;;;12.50;99.90;;;;;;4943671;28;20046;-81
2023/09/30 06:06:46;;;;;;;10.48;3.42;;;12.50;99.90;;;;;;4932909;29;20051;-81
2023/09/30 06:09:12;;;;;;;11.05;3.88;;;12.50;99.90;;;;;;4977646;28;20035;-81
2023/09/30 06:11:37;;;;;;;10.52;3.42;;;12.50;99.90;;;;;;4926974;29;20040;-81
2023/09/30 06:14:06;;;;;;;10.32;3.80;;;12.50;99.90;;;;;;4979166;28;20504;-81
2023/09/30 06:16:32;;;;;;;11.07;3.95;;;12.50;99.90;;;;;;4943402;28;20040;-81
2023/09/30 06:18:58;;;;;;;11.00;3.58;;;12.50;99.90;;;;;;4978106;28;20083;-81
2023/09/30 06:21:28;;;;;;;10.60;3.45;;;12.50;99.90;;;;;;4960526;28;20487;-81
2023/09/30 06:23:55;;;;;;;11.40;3.88;;;12.50;99.90;;;;;;4962258;28;20136;-81
2023/09/30 06:26:21;;;;;;;9.90;3.70;;;12.50;99.90;;;;;;4942806;28;20036;-81
2023/09/30 06:28:47;;;;;;;11.20;3.80;;;12.50;99.90;;;;;;4941407;28;20040;-82
2023/09/30 06:31:15;;;;;;;11.20;3.72;;;12.60;99.90;;;;;;4946243;28;20042;-82
2023/09/30 06:33:41;;;;;;;13.32;3.88;;;12.60;99.90;;;;;;4943762;28;20629;-82
2023/09/30 06:36:14;;;;;;;10.48;3.75;;;12.60;99.90;;;;;;4941726;28;20044;-82
2023/09/30 06:38:41;;;;;;;12.10;3.70;;;12.60;99.90;;;;;;4943680;28;20115;-81
2023/09/30 06:41:08;;;;;;;12.05;3.75;;;12.60;99.90;;;;;;4928611;29;20562;-82
2023/09/30 06:43:35;;;;;;;11.43;4.20;;;12.70;99.90;;;;;;4946899;28;20046;-82
2023/09/30 06:46:08;;;;;;;10.15;3.90;;;12.70;99.90;;;;;;4976239;28;20086;-81
2023/09/30 06:48:33;;;;;;;8.93;3.55;;;12.80;99.90;;;;;;4929919;29;20063;-81
2023/09/30 06:51:00;;;;;;;13.95;4.10;;;12.80;99.90;;;;;;4944004;28;20174;-81
2023/09/30 06:53:25;;;;;;;9.57;3.53;;;12.80;99.90;;;;;;4927777;29;20039;-81
2023/09/30 06:55:51;;;;;;;11.48;4.30;;;12.90;99.90;;;;;;4943861;29;20036;-81
2023/09/30 06:58:21;;;;;;;11.98;4.50;;;12.90;99.90;;;;;;4926762;29;20517;-82
2023/09/30 07:00:51;;;;;;;10.82;4.13;;;12.90;99.90;;;;;;4941500;28;20043;-82
2023/09/30 07:03:19;;;;;;;10.88;3.97;;;13.00;99.90;;;;;;4928290;29;20398;-81
2023/09/30 07:05:45;;;;;;;10.90;4.07;;;13.00;99.90;;;;;;4959879;28;20051;-81
2023/09/30 07:08:11;;;;;;;9.68;4.00;;;13.10;99.90;;;;;;4941786;28;20043;-81
2023/09/30 07:10:37;;;;;;;10.10;3.80;;;13.10;99.90;;;;;;4959700;28;20730;-81
2023/09/30 07:13:04;;;;;;;9.90;3.70;;;13.20;99.90;;;;;;4944222;28;20035;-81
2023/09/30 07:15:30;;;;;;;10.93;3.63;;;13.30;99.90;;;;;;4978385;28;20051;-82
2023/09/30 07:17:56;;;;;;;9.68;3.83;;;13.30;99.90;;;;;;4943439;28;20035;-81
2023/09/30 07:20:22;;;;;;;10.27;3.53;;;13.40;99.90;;;;;;4944017;28;20494;-81
2023/09/30 07:22:48;;;;;;;10.63;3.85;;;13.50;99.90;;;;;;4975267;28;20481;-81
2023/09/30 07:25:16;;;;;;;12.13;4.38;;;13.50;99.90;;;;;;4943870;28;20053;-82
2023/09/30 07:27:43;;;;;;;11.68;4.30;;;13.60;99.90;;;;;;4961180;28;20098;-82
2023/09/30 07:30:11;;;;;;;14.15;4.20;;;13.70;99.90;;;;;;4942423;29;20446;-81
2023/09/30 07:32:38;;;;;;;9.73;3.67;;;13.70;99.90;;;;;;4956658;28;20032;-82
2023/09/30 07:35:04;;;;;;;11.70;3.95;;;13.80;99.90;;;;;;4958859;28;20062;-82
2023/09/30 07:37:29;;;;;;;9.73;3.55;;;13.80;99.90;;;;;;4925030;29;20060;-82
2023/09/30 07:39:55;;;;;;;12.30;3.38;;;13.80;99.90;;;;;;4925557;29;20409;-82
2023/09/30 07:42:22;;;;;;;10.25;3.70;;;13.90;99.90;;;;;;4956376;28;20048;-82
2023/09/30 07:44:48;;;;;;;9.95;3.47;;;14.00;99.90;;;;;;4925273;29;20510;-82
2023/09/30 07:47:14;;;;;;;10.40;4.00;;;14.00;99.90;;;;;;4958619;28;20051;-81
2023/09/30 07:49:40;;;;;;;11.35;3.80;;;14.10;99.90;;;;;;4926378;29;20043;-82
2023/09/30 07:52:06;;;;;;;10.52;3.65;;;14.10;99.90;;;;;;4926005;29;20039;-82
2023/09/30 07:54:32;;;;;;;10.02;3.78;;;14.20;99.90;;;;;;4938470;28;20063;-83
2023/09/30 07:56:58;;;;;;;10.50;3.75;;;14.30;99.90;;;;;;4923701;29;20047;-82
2023/09/30 07:59:25;;;;;;;10.90;3.92;;;14.30;99.90;;;;;;4942460;29;20078;-82
2023/09/30 08:01:52;;;;;;;9.68;3.78;;;14.40;99.90;;;;;;4942748;29;20106;-82
2023/09/30 08:04:18;;;;;;;8.75;3.60;;;14.50;99.90;;;;;;4927833;29;20395;-82
2023/09/30 08:06:44;;;;;;;9.20;3.60;;;14.50;99.90;;;;;;4961814;28;20051;-82
2023/09/30 08:09:13;;;;;;;11.07;3.72;;;14.60;99.90;;;;;;4925185;29;20090;-82
2023/09/30 08:11:38;;;;;;;10.35;3.72;;;14.70;99.90;;;;;;4925271;29;20078;-82
2023/09/30 08:14:06;;;;;;;12.13;3.90;;;14.70;99.90;;;;;;4939500;28;20477;-82
2023/09/30 08:16:38;;;;;;;11.48;3.83;;;14.90;99.90;;;;;;4947806;28;20351;-82
2023/09/30 08:19:05;;;;;;;12.40;4.22;;;14.90;99.90;;;;;;4972980;28;20049;-82
2023/09/30 08:21:31;;;;;;;12.60;3.60;;;15.00;99.90;;;;;;4959599;28;20370;-82
2023/09/30 08:24:00;;;;;;;9.25;3.42;;;15.10;99.90;;;;;;4958257;28;20039;-81
2023/09/30 08:26:25;;;;;;;11.93;3.80;;;15.20;99.90;;;;;;4928718;29;20036;-82
2023/09/30 08:28:51;;;;;;;8.75;3.50;;;15.20;99.90;;;;;;4926124;29;20394;-82
2023/09/30 08:31:17;;;;;;;10.60;3.45;;;15.30;99.90;;;;;;4962080;28;20067;-83
2023/09/30 08:33:45;;;;;;;11.57;3.70;;;15.40;99.90;;;;;;4956910;28;20071;-82
2023/09/30 08:36:11;;;;;;;8.85;3.42;;;15.50;99.90;;;;;;4972434;28;20035;-82
2023/09/30 08:38:39;;;;;;;11.88;3.50;;;15.60;99.90;;;;;;4925799;29;20098;-82
2023/09/30 08:41:07;;;;;;;13.35;4.07;;;15.70;99.90;;;;;;4958537;28;20048;-82
2023/09/30 08:43:39;;;;;;;8.20;2.92;;;15.80;99.90;;;;;;4962723;28;20059;-83
2023/09/30 08:46:06;;;;;;;10.27;3.17;;;15.90;99.90;;;;;;4946998;29;20494;-82
2023/09/30 08:48:35;;;;;;;9.35;3.03;;;16.00;99.90;;;;;;4931135;29;20055;-82
2023/09/30 08:51:02;;;;;;;10.13;3.20;;;16.00;99.90;;;;;;4962731;28;20099;-82
2023/09/30 08:53:31;;;;;;;10.68;3.45;;;16.10;99.90;;;;;;4930493;29;20047;-82
2023/09/30 08:56:00;;;;;;;10.48;3.33;;;16.20;99.90;;;;;;4931057;29;20089;-82
2023/09/30 08:58:29;;;;;;;9.77;3.08;;;16.30;99.90;;;;;;4930084;29;20177;-82
2023/09/30 09:00:56;;;;;;;11.27;3.40;;;16.40;99.90;;;;;;4961854;28;20044;-83
2023/09/30 09:03:22;;;;;;;12.38;3.38;;;16.40;99.90;;;;;;4914463;29;20071;-82
2023/09/30 09:05:59;;;;;;;10.40;3.30;;;16.50;99.90;;;;;;4931092;29;20067;-82
2023/09/30 09:08:26;;;;;;;8.95;3.15;;;16.60;99.90;;;;;;4946679;29;20574;-82
2023/09/30 09:10:56;;;;;;;9.05;2.78;;;16.70;99.90;;;;;;4947751;28;20039;-82
2023/09/30 09:13:22;;;;;;;10.70;3.15;;;16.70;99.90;;;;;;4930208;29;20317;-82
2023/09/30 09:15:48;;;;;;;9.38;2.97;;;16.80;99.90;;;;;;4914996;29;20556;-82
2023/09/30 09:18:32;;;;;;;8.82;2.78;;;16.80;99.90;;;;;;4962927;28;20308;-82
2023/09/30 09:21:22;;;;;;;7.80;2.58;;;16.90;99.90;;;;;;4962579;28;20505;-83
2023/09/30 09:23:49;;;;;;;11.63;2.88;;;16.90;99.90;;;;;;4913113;29;20401;-83
2023/09/30 09:26:27;;;;;;;9.10;3.25;;;17.00;99.90;;;;;;4962701;28;20123;-83
2023/09/30 09:28:57;;;;;;;8.65;2.80;;;17.10;99.90;;;;;;4930803;29;20043;-82
2023/09/30 09:31:28;;;;;;;8.35;2.63;;;17.10;99.90;;;;;;4931087;29;20059;-83
2023/09/30 09:33:54;;;;;;;9.15;2.63;;;17.20;99.90;;;;;;4919319;29;20050;-82
2023/09/30 09:36:20;;;;;;;8.18;2.63;;;17.20;99.90;;;;;;4930565;29;20032;-82
2023/09/30 09:38:53;;;;;;;10.52;3.03;;;17.30;99.90;;;;;;4930565;29;20188;-82
2023/09/30 09:41:19;;;;;;;;;;;17.30;99.90;;;;;;4948062;28;20047;-82
2023/09/30 09:43:49;;;;;;;9.43;2.95;;;17.40;99.90;;;;;;4946123;29;19938;-83
2023/09/30 09:46:17;;;;;;;10.38;2.85;;;17.50;99.90;;;;;;4962221;28;20054;-83
2023/09/30 09:48:48;;;;;;;9.07;2.60;;;17.50;99.90;;;;;;4927584;29;20413;-83
2023/09/30 09:51:14;;;;;;;8.32;2.42;;;17.60;99.90;;;;;;4942847;28;20073;-83
2023/09/30 09:53:41;;;;;;;11.52;2.78;;;17.60;99.90;;;;;;4942624;28;20075;-83
2023/09/30 09:56:11;;;;;;;12.45;2.70;;;17.70;99.90;;;;;;4919059;29;20040;-82
2023/09/30 09:58:42;;;;;;;9.48;2.22;;;17.70;99.90;;;;;;4936502;28;20060;-81
2023/09/30 10:01:09;;;;;;;9.10;2.45;;;17.80;99.90;;;;;;4943987;29;20409;-82
2023/09/30 10:03:36;;;;;;;9.20;2.50;;;17.90;99.90;;;;;;4980557;28;20449;-82
2023/09/30 10:06:02;;;;;;;8.98;2.28;;;17.90;99.90;;;;;;4932926;29;20056;-82
2023/09/30 10:08:43;;;;;;;8.27;2.38;;;18.00;99.90;;;;;;4949879;29;20477;-82
2023/09/30 10:11:20;;;;;;;8.65;2.28;;;18.00;99.90;;;;;;4908558;29;20438;-82
2023/09/30 10:13:56;;;;;;;10.82;2.70;;;18.10;99.90;;;;;;4964792;28;20039;-82
2023/09/30 10:16:37;;;;;;;10.25;2.40;;;18.20;99.90;;;;;;4948897;29;20043;-80
2023/09/30 10:19:14;;;;;;;10.30;2.78;;;18.20;99.90;;;;;;4933066;29;20050;-82
2023/09/30 10:22:27;;;;;;;7.97;2.20;;;18.20;99.90;;;;;;4953438;28;20044;-82
2023/09/30 10:24:59;;;;;;;8.85;2.20;;;18.30;99.90;;;;;;4933486;29;20497;-82
2023/09/30 10:27:24;;;;;;;9.60;2.58;;;18.40;99.90;;;;;;4932323;29;20158;-82
2023/09/30 10:30:13;;;;;;;8.73;2.17;;;18.50;99.90;;;;;;4965640;28;20039;-82
2023/09/30 10:32:51;;;;;;;8.32;2.30;;;18.70;99.90;;;;;;4925898;29;20047;-82
2023/09/30 10:35:17;;;;;;;7.93;2.15;;;18.80;99.90;;;;;;4932989;29;20379;-82
2023/09/30 10:37:44;;;;;;;7.65;2.08;;;18.80;99.90;;;;;;4963537;28;20395;-82
2023/09/30 10:40:33;;;;;;;7.13;1.83;;;18.70;99.90;;;;;;4965250;28;20457;-82
2023/09/30 10:43:00;;;;;;;9.20;2.00;;;18.60;99.90;;;;;;4978472;28;20044;-81
2023/09/30 10:45:43;;;;;;;8.50;2.42;;;18.40;99.90;;;;;;4948799;28;20617;-81
2023/09/30 10:48:27;;;;;;;7.55;2.13;;;18.30;99.90;;;;;;4948239;29;20056;-82
2023/09/30 10:50:56;;;;;;;7.93;1.92;;;18.30;99.90;;;;;;4965108;28;20096;-81
2023/09/30 10:53:22;;;;;;;7.72;2.08;;;18.40;99.90;;;;;;4964514;28;20076;-81
2023/09/30 10:55:55;;;;;;;8.43;2.17;;;18.50;99.90;;;;;;4932918;29;20118;-82
2023/09/30 10:58:21;;;;;;;7.80;2.03;;;18.40;99.90;;;;;;4932186;29;20434;-81
2023/09/30 11:00:54;;;;;;;7.55;2.10;;;18.30;99.90;;;;;;4948929;29;20059;-82
2023/09/30 11:03:23;;;;;;;8.93;2.17;;;18.20;99.90;;;;;;4932842;29;20276;-82
2023/09/30 11:05:51;;;;;;;9.90;2.30;;;18.30;99.90;;;;;;4932739;29;20409;-82
2023/09/30 11:08:21;;;;;;;10.70;2.47;;;18.30;99.90;;;;;;4964099;28;20441;-82
2023/09/30 11:10:52;;;;;;;8.13;2.30;;;18.50;99.90;;;;;;4948759;28;20040;-82
2023/09/30 11:13:19;;;;;;;10.00;2.53;;;18.60;99.90;;;;;;4931186;29;20166;-82
2023/09/30 11:15:45;;;;;;;6.65;1.67;;;18.70;99.90;;;;;;4915933;29;20075;-82
2023/09/30 11:18:18;;;;;;;9.18;2.03;;;18.80;99.90;;;;;;4940881;29;20046;-81
2023/09/30 11:20:45;;;;;;;8.25;2.00;;;18.90;99.90;;;;;;4959914;28;20087;-81
2023/09/30 11:23:15;;;;;;;7.93;1.90;;;19.00;99.90;;;;;;4931301;29;20050;-82
2023/09/30 11:25:41;;;;;;;6.85;1.73;;;19.20;99.90;;;;;;4964354;28;20645;-81
2023/09/30 11:28:15;;;;;;;7.20;1.92;;;19.30;99.90;;;;;;4945437;28;20131;-81
2023/09/30 11:31:02;;;;;;;6.43;1.95;;;19.30;99.90;;;;;;4963381;28;20035;-82
2023/09/30 11:33:28;;;;;;;10.13;2.38;;;19.40;99.90;;;;;;4959287;28;20047;-82
2023/09/30 11:36:02;;;;;;;5.68;1.65;;;19.40;99.90;;;;;;4976500;28;20051;-82
2023/09/30 11:38:32;;;;;;;8.23;2.17;;;19.50;99.90;;;;;;4930987;29;20066;-82
2023/09/30 11:41:03;;;;;;;6.18;1.60;;;19.60;99.90;;;;;;4963379;28;20457;-81
2023/09/30 11:43:30;;;;;;;7.47;1.73;;;19.60;99.90;;;;;;4947170;29;20075;-81
2023/09/30 11:46:05;;;;;;;7.18;1.98;;;19.70;99.90;;;;;;4947494;29;20047;-82
2023/09/30 11:48:31;;;;;;;10.15;2.03;;;19.70;99.90;;;;;;4964080;28;20120;-82
2023/09/30 11:51:01;;;;;;;7.63;1.90;;;19.80;99.90;;;;;;4931736;29;20525;-82
2023/09/30 11:53:28;;;;;;;6.78;1.70;;;19.60;99.90;;;;;;4964090;28;20043;-82
2023/09/30 11:55:55;;;;;;;7.35;1.90;;;19.50;99.90;;;;;;4931669;29;20453;-82
2023/09/30 11:58:22;;;;;;;5.15;1.60;;;19.30;99.90;;;;;;4946789;28;20047;-82
2023/09/30 12:00:50;;;;;;;6.75;2.03;;;18.90;99.90;;;;;;4931272;29;20063;-81
2023/09/30 12:03:16;;;;;;;8.13;1.80;;;18.70;99.90;;;;;;4948059;29;20414;-82
2023/09/30 12:05:42;;;;;;;7.75;2.00;;;18.50;99.90;;;;;;4947396;29;20123;-81
2023/09/30 12:08:08;;;;;;;6.20;1.80;;;18.30;99.90;;;;;;4946827;29;20377;-81
2023/09/30 12:10:34;;;;;;;7.32;1.90;;;18.10;99.90;;;;;;4946756;28;20122;-82
2023/09/30 12:13:00;;;;;;;7.57;1.75;;;18.00;99.90;;;;;;4948189;29;20083;-81
2023/09/30 12:15:26;;;;;;;6.35;1.65;;;17.90;99.90;;;;;;4931382;29;20533;-81
2023/09/30 12:17:52;;;;;;;7.78;1.90;;;17.80;99.90;;;;;;4946817;29;20103;-82
2023/09/30 12:20:18;;;;;;;7.72;1.80;;;17.70;99.90;;;;;;4946088;28;20453;-81
2023/09/30 12:22:44;;;;;;;6.75;1.85;;;17.60;99.90;;;;;;4963444;28;20288;-82
2023/09/30 12:25:09;;;;;;;7.13;1.60;;;17.60;99.90;;;;;;4943407;28;20043;-82
2023/09/30 12:27:35;;;;;;;8.23;1.70;;;17.60;99.90;;;;;;4979657;28;20118;-82
2023/09/30 12:30:01;;;;;;;6.72;1.77;;;17.50;99.90;;;;;;4962322;28;20441;-82
2023/09/30 12:32:26;;;;;;;6.38;1.85;;;17.60;99.90;;;;;;4975207;28;20047;-82
2023/09/30 12:34:53;;;;;;;7.97;1.95;;;17.60;99.90;;;;;;4915141;29;20031;-82
2023/09/30 12:37:19;;;;;;;7.43;2.10;;;17.70;99.90;;;;;;4946956;29;20083;-81
2023/09/30 12:39:45;;;;;;;7.20;2.05;;;17.80;99.90;;;;;;4946904;29;20118;-82
2023/09/30 12:42:12;;;;;;;6.00;1.80;;;17.90;99.90;;;;;;4943486;28;20044;-82
2023/09/30 12:44:38;;;;;;;8.68;1.88;;;17.80;99.90;;;;;;4922238;29;20039;-81
2023/09/30 12:47:05;;;;;;;5.07;1.50;;;18.10;99.90;;;;;;4941770;28;20386;-82